sensor_id;sensor_type;location;lat;lon;timestamp;pressure;altitude;pressure_sealevel;temperature;humidity
20696;BME280;10507;52.754;13.040;2023-01-15T00:02:14;98996.78;;;8.85;100.00
20696;BME280;10507;52.754;13.040;2023-01-15T00:04:49;98999.09;;;8.90;100.00
20696;BME280;10507;52.754;13.040;2023-01-15T00:07:19;98984.88;;;8.91;100.00
20696;BME280;10507;52.754;13.040;2023-01-15T00:09:50;99006.91;;;8.93;100.00
20696;BME280;10507;52.754;13.040;2023-01-15T00:12:18;99005.94;;;8.94;100.00
20696;BME280;10507;52.754;13.040;2023-01-15T00:14:47;99002.94;;;8.99;100.00
20696;BME280;10507;52.754;13.040;2023-01-15T00:17:15;98987.72;;;9.01;100.00
20696;BME280;10507;52.754;13.040;2023-01-15T00:19:43;98991.03;;;9.04;100.00
20696;BME280;10507;52.754;13.040;2023-01-15T00:22:10;98981.22;;;9.05;100.00
20696;BME280;10507;52.754;13.040;2023-01-15T00:24:40;98983.88;;;9.05;100.00
20696;BME280;10507;52.754;13.040;2023-01-15T00:27:25;98975.25;;;9.01;100.00
20696;BME280;10507;52.754;13.040;2023-01-15T00:30:06;98976.13;;;9.02;100.00
20696;BME280;10507;52.754;13.040;2023-01-15T00:32:35;98967.16;;;9.03;100.00
20696;BME280;10507;52.754;13.040;2023-01-15T00:35:03;98952.91;;;9.04;100.00
20696;BME280;10507;52.754;13.040;2023-01-15T00:37:31;98958.25;;;9.04;100.00
20696;BME280;10507;52.754;13.040;2023-01-15T00:40:00;98944.28;;;9.00;100.00
20696;BME280;10507;52.754;13.040;2023-01-15T00:42:28;98954.19;;;8.98;100.00
20696;BME280;10507;52.754;13.040;2023-01-15T00:44:56;98976.75;;;9.05;100.00
20696;BME280;10507;52.754;13.040;2023-01-15T00:47:25;98968.16;;;9.02;100.00
20696;BME280;10507;52.754;13.040;2023-01-15T00:49:55;98996.97;;;9.08;100.00
20696;BME280;10507;52.754;13.040;2023-01-15T00:52:23;99001.97;;;9.12;100.00
20696;BME280;10507;52.754;13.040;2023-01-15T00:54:51;98985.28;;;9.10;100.00
20696;BME280;10507;52.754;13.040;2023-01-15T00:57:22;98992.94;;;9.15;100.00
20696;BME280;10507;52.754;13.040;2023-01-15T00:59:50;98989.31;;;9.16;100.00
20696;BME280;10507;52.754;13.040;2023-01-15T01:02:18;98982.16;;;9.16;100.00
20696;BME280;10507;52.754;13.040;2023-01-15T01:04:46;99000.38;;;9.23;100.00
20696;BME280;10507;52.754;13.040;2023-01-15T01:07:14;98960.66;;;9.20;100.00
20696;BME280;10507;52.754;13.040;2023-01-15T01:09:44;98980.78;;;9.24;100.00
20696;BME280;10507;52.754;13.040;2023-01-15T01:12:11;98998.34;;;9.26;100.00
20696;BME280;10507;52.754;13.040;2023-01-15T01:14:41;98972.06;;;9.22;100.00
20696;BME280;10507;52.754;13.040;2023-01-15T01:17:09;98973.63;;;9.24;100.00
20696;BME280;10507;52.754;13.040;2023-01-15T01:19:38;98977.38;;;9.22;100.00
20696;BME280;10507;52.754;13.040;2023-01-15T01:22:05;98998.44;;;9.25;100.00
20696;BME280;10507;52.754;13.040;2023-01-15T01:24:33;99011.88;;;9.23;100.00
20696;BME280;10507;52.754;13.040;2023-01-15T01:27:01;99025.94;;;9.25;100.00
20696;BME280;10507;52.754;13.040;2023-01-15T01:29:29;99052.56;;;9.25;100.00
20696;BME280;10507;52.754;13.040;2023-01-15T01:31:59;99070.25;;;9.26;100.00
20696;BME280;10507;52.754;13.040;2023-01-15T01:34:27;99050.44;;;9.18;100.00
20696;BME280;10507;52.754;13.040;2023-01-15T01:36:57;99069.41;;;9.13;100.00
20696;BME280;10507;52.754;13.040;2023-01-15T01:39:25;99088.38;;;9.08;100.00
20696;BME280;10507;52.754;13.040;2023-01-15T01:41:53;99103.91;;;9.02;100.00
20696;BME280;10507;52.754;13.040;2023-01-15T01:47:48;99188.66;;;9.08;100.00
20696;BME280;10507;52.754;13.040;2023-01-15T01:50:16;99197.53;;;9.08;100.00
20696;BME280;10507;52.754;13.040;2023-01-15T01:52:48;99233.91;;;9.08;100.00
20696;BME280;10507;52.754;13.040;2023-01-15T01:55:34;99240.97;;;9.09;100.00
20696;BME280;10507;52.754;13.040;2023-01-15T01:58:10;99245.22;;;9.11;100.00
20696;BME280;10507;52.754;13.040;2023-01-15T02:01:04;99260.22;;;9.12;100.00
20696;BME280;10507;52.754;13.040;2023-01-15T02:03:44;99272.59;;;9.13;100.00
20696;BME280;10507;52.754;13.040;2023-01-15T02:06:14;99270.03;;;9.12;100.00
20696;BME280;10507;52.754;13.040;2023-01-15T02:08:57;99290.50;;;9.11;100.00
20696;BME280;10507;52.754;13.040;2023-01-15T02:11:33;99315.22;;;9.13;100.00
20696;BME280;10507;52.754;13.040;2023-01-15T02:14:08;99318.09;;;9.10;100.00
20696;BME280;10507;52.754;13.040;2023-01-15T02:16:44;99341.16;;;9.10;100.00
20696;BME280;10507;52.754;13.040;2023-01-15T02:19:37;99336.72;;;9.10;100.00
20696;BME280;10507;52.754;13.040;2023-01-15T02:22:15;99348.38;;;9.22;100.00
20696;BME280;10507;52.754;13.040;2023-01-15T02:24:56;99328.28;;;9.31;100.00
20696;BME280;10507;52.754;13.040;2023-01-15T02:27:33;99317.19;;;9.37;100.00
20696;BME280;10507;52.754;13.040;2023-01-15T02:30:05;99302.28;;;9.34;100.00
20696;BME280;10507;52.754;13.040;2023-01-15T02:32:43;99291.38;;;9.25;100.00
20696;BME280;10507;52.754;13.040;2023-01-15T02:35:27;99321.53;;;9.25;100.00
20696;BME280;10507;52.754;13.040;2023-01-15T02:38:03;99338.47;;;9.24;100.00
20696;BME280;10507;52.754;13.040;2023-01-15T02:40:40;99343.13;;;9.21;100.00
20696;BME280;10507;52.754;13.040;2023-01-15T02:43:12;99382.91;;;9.24;100.00
20696;BME280;10507;52.754;13.040;2023-01-15T02:45:46;99358.56;;;9.15;100.00
20696;BME280;10507;52.754;13.040;2023-01-15T02:48:25;99378.91;;;9.16;100.00
20696;BME280;10507;52.754;13.040;2023-01-15T02:51:06;99382.84;;;9.11;100.00
20696;BME280;10507;52.754;13.040;2023-01-15T02:53:40;99388.03;;;9.12;100.00
20696;BME280;10507;52.754;13.040;2023-01-15T02:56:14;99396.31;;;9.08;100.00
20696;BME280;10507;52.754;13.040;2023-01-15T02:58:47;99413.28;;;9.07;100.00
20696;BME280;10507;52.754;13.040;2023-01-15T03:01:19;99421.03;;;9.10;100.00
20696;BME280;10507;52.754;13.040;2023-01-15T03:03:59;99404.13;;;9.11;100.00
20696;BME280;10507;52.754;13.040;2023-01-15T03:06:40;99378.81;;;9.18;100.00
20696;BME280;10507;52.754;13.040;2023-01-15T03:09:15;99343.66;;;9.13;100.00
20696;BME280;10507;52.754;13.040;2023-01-15T03:11:48;99336.31;;;9.16;100.00
20696;BME280;10507;52.754;13.040;2023-01-15T03:14:28;99301.13;;;9.11;100.00
20696;BME280;10507;52.754;13.040;2023-01-15T03:17:04;99324.81;;;9.16;100.00
20696;BME280;10507;52.754;13.040;2023-01-15T03:19:42;99315.59;;;9.07;100.00
20696;BME280;10507;52.754;13.040;2023-01-15T03:22:18;99299.00;;;9.04;100.00
20696;BME280;10507;52.754;13.040;2023-01-15T03:24:50;99189.84;;;8.77;100.00
20696;BME280;10507;52.754;13.040;2023-01-15T03:27:20;99094.44;;;8.58;100.00
20696;BME280;10507;52.754;13.040;2023-01-15T03:29:53;99040.66;;;8.40;100.00
20696;BME280;10507;52.754;13.040;2023-01-15T03:32:22;99017.56;;;8.27;100.00
20696;BME280;10507;52.754;13.040;2023-01-15T03:34:53;99016.22;;;8.20;100.00
20696;BME280;10507;52.754;13.040;2023-01-15T03:37:23;99008.13;;;8.09;100.00
20696;BME280;10507;52.754;13.040;2023-01-15T03:39:54;98998.00;;;8.01;100.00
20696;BME280;10507;52.754;13.040;2023-01-15T03:42:41;98996.50;;;7.97;100.00
20696;BME280;10507;52.754;13.040;2023-01-15T03:45:17;98945.63;;;7.76;100.00
20696;BME280;10507;52.754;13.040;2023-01-15T03:47:55;98920.84;;;7.63;100.00
20696;BME280;10507;52.754;13.040;2023-01-15T03:50:31;98889.13;;;7.47;100.00
20696;BME280;10507;52.754;13.040;2023-01-15T03:53:10;98874.09;;;7.33;100.00
20696;BME280;10507;52.754;13.040;2023-01-15T03:55:44;98897.31;;;7.29;100.00
20696;BME280;10507;52.754;13.040;2023-01-15T03:58:19;98882.63;;;7.24;100.00
20696;BME280;10507;52.754;13.040;2023-01-15T04:00:51;98821.28;;;7.01;100.00
20696;BME280;10507;52.754;13.040;2023-01-15T04:03:22;98830.69;;;6.93;100.00
20696;BME280;10507;52.754;13.040;2023-01-15T04:05:51;98775.13;;;6.77;100.00
20696;BME280;10507;52.754;13.040;2023-01-15T04:08:22;98744.66;;;6.70;100.00
20696;BME280;10507;52.754;13.040;2023-01-15T04:10:52;98764.28;;;6.67;100.00
20696;BME280;10507;52.754;13.040;2023-01-15T04:13:22;98737.59;;;6.56;100.00
20696;BME280;10507;52.754;13.040;2023-01-15T04:15:54;98806.75;;;6.53;100.00
20696;BME280;10507;52.754;13.040;2023-01-15T04:18:22;98800.00;;;6.47;100.00
20696;BME280;10507;52.754;13.040;2023-01-15T04:20:50;98786.97;;;6.44;100.00
20696;BME280;10507;52.754;13.040;2023-01-15T04:23:20;98774.75;;;6.41;100.00
20696;BME280;10507;52.754;13.040;2023-01-15T04:25:50;98775.88;;;6.37;100.00
20696;BME280;10507;52.754;13.040;2023-01-15T04:28:19;98830.72;;;6.37;100.00
20696;BME280;10507;52.754;13.040;2023-01-15T04:30:47;98813.56;;;6.28;100.00
20696;BME280;10507;52.754;13.040;2023-01-15T04:33:17;98840.06;;;6.28;100.00
20696;BME280;10507;52.754;13.040;2023-01-15T04:35:45;98810.72;;;6.17;100.00
20696;BME280;10507;52.754;13.040;2023-01-15T04:38:13;98824.28;;;6.12;100.00
20696;BME280;10507;52.754;13.040;2023-01-15T04:40:41;98828.53;;;6.15;100.00
20696;BME280;10507;52.754;13.040;2023-01-15T04:43:31;98808.75;;;6.06;100.00
20696;BME280;10507;52.754;13.040;2023-01-15T04:46:20;98831.91;;;6.02;100.00
20696;BME280;10507;52.754;13.040;2023-01-15T04:48:50;98851.28;;;6.03;100.00
20696;BME280;10507;52.754;13.040;2023-01-15T04:51:18;98871.47;;;6.06;100.00
20696;BME280;10507;52.754;13.040;2023-01-15T04:53:54;98839.28;;;5.97;100.00
20696;BME280;10507;52.754;13.040;2023-01-15T04:56:23;98871.63;;;6.02;100.00
20696;BME280;10507;52.754;13.040;2023-01-15T04:58:53;98882.91;;;6.06;100.00
20696;BME280;10507;52.754;13.040;2023-01-15T05:01:25;98849.53;;;6.03;100.00
20696;BME280;10507;52.754;13.040;2023-01-15T05:03:56;98832.66;;;6.04;100.00
20696;BME280;10507;52.754;13.040;2023-01-15T05:06:27;98836.06;;;6.07;100.00
20696;BME280;10507;52.754;13.040;2023-01-15T05:08:59;98834.28;;;6.07;100.00
20696;BME280;10507;52.754;13.040;2023-01-15T05:11:27;98829.94;;;6.06;100.00
20696;BME280;10507;52.754;13.040;2023-01-15T05:13:56;98833.72;;;6.02;100.00
20696;BME280;10507;52.754;13.040;2023-01-15T05:16:30;98834.66;;;6.01;100.00
20696;BME280;10507;52.754;13.040;2023-01-15T05:19:06;98835.78;;;5.97;100.00
20696;BME280;10507;52.754;13.040;2023-01-15T05:21:44;98827.84;;;5.97;100.00
20696;BME280;10507;52.754;13.040;2023-01-15T05:24:20;98849.69;;;6.00;100.00
20696;BME280;10507;52.754;13.040;2023-01-15T05:26:51;98828.78;;;5.96;100.00
20696;BME280;10507;52.754;13.040;2023-01-15T05:29:23;98835.78;;;5.97;100.00
20696;BME280;10507;52.754;13.040;2023-01-15T05:31:52;98846.19;;;6.00;100.00
20696;BME280;10507;52.754;13.040;2023-01-15T05:34:21;98786.75;;;5.90;100.00
20696;BME280;10507;52.754;13.040;2023-01-15T05:36:51;98800.72;;;5.92;100.00
20696;BME280;10507;52.754;13.040;2023-01-15T05:39:25;98791.84;;;5.93;100.00
20696;BME280;10507;52.754;13.040;2023-01-15T05:41:57;98816.72;;;5.90;100.00
20696;BME280;10507;52.754;13.040;2023-01-15T05:44:27;98812.09;;;5.94;100.00
20696;BME280;10507;52.754;13.040;2023-01-15T05:47:01;98818.34;;;5.93;100.00
20696;BME280;10507;52.754;13.040;2023-01-15T05:49:33;98824.56;;;5.92;100.00
20696;BME280;10507;52.754;13.040;2023-01-15T05:52:04;98860.19;;;6.02;100.00
20696;BME280;10507;52.754;13.040;2023-01-15T05:54:35;98858.50;;;6.01;100.00
20696;BME280;10507;52.754;13.040;2023-01-15T05:57:05;98855.94;;;5.99;100.00
20696;BME280;10507;52.754;13.040;2023-01-15T05:59:33;98863.81;;;6.01;100.00
20696;BME280;10507;52.754;13.040;2023-01-15T06:02:05;98866.53;;;5.99;100.00
20696;BME280;10507;52.754;13.040;2023-01-15T06:04:36;98851.06;;;5.92;100.00
20696;BME280;10507;52.754;13.040;2023-01-15T06:07:05;98874.88;;;5.92;100.00
20696;BME280;10507;52.754;13.040;2023-01-15T06:09:33;98883.47;;;5.97;100.00
20696;BME280;10507;52.754;13.040;2023-01-15T06:12:03;98859.00;;;5.92;100.00
20696;BME280;10507;52.754;13.040;2023-01-15T06:14:33;98841.00;;;5.82;100.00
20696;BME280;10507;52.754;13.040;2023-01-15T06:17:10;98854.25;;;5.82;100.00
20696;BME280;10507;52.754;13.040;2023-01-15T06:19:49;98871.88;;;5.83;100.00
20696;BME280;10507;52.754;13.040;2023-01-15T06:22:18;98899.28;;;5.82;100.00
20696;BME280;10507;52.754;13.040;2023-01-15T06:24:46;98912.91;;;5.76;100.00
20696;BME280;10507;52.754;13.040;2023-01-15T06:27:24;98943.53;;;5.80;100.00
20696;BME280;10507;52.754;13.040;2023-01-15T06:29:52;98954.22;;;5.79;100.00
20696;BME280;10507;52.754;13.040;2023-01-15T06:32:21;98977.94;;;5.80;100.00
20696;BME280;10507;52.754;13.040;2023-01-15T06:34:52;98973.69;;;5.78;100.00
20696;BME280;10507;52.754;13.040;2023-01-15T06:37:21;99019.06;;;5.88;100.00
20696;BME280;10507;52.754;13.040;2023-01-15T06:39:49;98984.97;;;5.81;100.00
20696;BME280;10507;52.754;13.040;2023-01-15T06:42:16;98975.69;;;5.74;100.00
20696;BME280;10507;52.754;13.040;2023-01-15T06:45:09;98981.91;;;5.73;100.00
20696;BME280;10507;52.754;13.040;2023-01-15T06:47:55;98977.81;;;5.68;100.00
20696;BME280;10507;52.754;13.040;2023-01-15T06:50:27;98968.25;;;5.65;100.00
20696;BME280;10507;52.754;13.040;2023-01-15T06:53:00;98948.19;;;5.61;100.00
20696;BME280;10507;52.754;13.040;2023-01-15T06:55:28;98972.69;;;5.65;100.00
20696;BME280;10507;52.754;13.040;2023-01-15T06:57:57;98960.97;;;5.69;100.00
20696;BME280;10507;52.754;13.040;2023-01-15T07:00:27;98919.06;;;5.61;100.00
20696;BME280;10507;52.754;13.040;2023-01-15T07:02:58;98947.09;;;5.65;100.00
20696;BME280;10507;52.754;13.040;2023-01-15T07:05:28;98939.81;;;5.69;100.00
20696;BME280;10507;52.754;13.040;2023-01-15T07:07:57;98922.03;;;5.71;100.00
20696;BME280;10507;52.754;13.040;2023-01-15T07:10:25;98910.75;;;5.67;100.00
20696;BME280;10507;52.754;13.040;2023-01-15T07:12:54;98883.69;;;5.62;100.00
20696;BME280;10507;52.754;13.040;2023-01-15T07:15:22;98885.09;;;5.53;100.00
20696;BME280;10507;52.754;13.040;2023-01-15T07:17:53;98890.38;;;5.53;100.00
20696;BME280;10507;52.754;13.040;2023-01-15T07:20:22;98899.09;;;5.55;100.00
20696;BME280;10507;52.754;13.040;2023-01-15T07:22:53;98903.53;;;5.55;100.00
20696;BME280;10507;52.754;13.040;2023-01-15T07:25:21;98927.78;;;5.63;100.00
20696;BME280;10507;52.754;13.040;2023-01-15T07:27:49;98936.38;;;5.67;100.00
20696;BME280;10507;52.754;13.040;2023-01-15T07:30:17;98897.03;;;5.60;100.00
20696;BME280;10507;52.754;13.040;2023-01-15T07:32:45;98911.28;;;5.58;100.00
20696;BME280;10507;52.754;13.040;2023-01-15T07:35:15;98908.84;;;5.55;100.00
20696;BME280;10507;52.754;13.040;2023-01-15T07:37:43;98911.66;;;5.52;100.00
20696;BME280;10507;52.754;13.040;2023-01-15T07:40:12;98950.84;;;5.61;100.00
20696;BME280;10507;52.754;13.040;2023-01-15T07:42:41;98933.22;;;5.60;100.00
20696;BME280;10507;52.754;13.040;2023-01-15T07:45:31;98944.59;;;5.62;100.00
20696;BME280;10507;52.754;13.040;2023-01-15T07:48:16;98933.50;;;5.55;100.00
20696;BME280;10507;52.754;13.040;2023-01-15T07:51:01;98929.94;;;5.56;100.00
20696;BME280;10507;52.754;13.040;2023-01-15T07:53:29;98928.91;;;5.59;100.00
20696;BME280;10507;52.754;13.040;2023-01-15T07:55:59;98906.09;;;5.56;100.00
20696;BME280;10507;52.754;13.040;2023-01-15T07:58:27;98928.91;;;5.59;100.00
20696;BME280;10507;52.754;13.040;2023-01-15T08:00:55;98933.22;;;5.60;100.00
20696;BME280;10507;52.754;13.040;2023-01-15T08:03:23;98936.66;;;5.62;100.00
20696;BME280;10507;52.754;13.040;2023-01-15T08:05:51;98898.06;;;5.58;100.00
20696;BME280;10507;52.754;13.040;2023-01-15T08:08:22;98906.41;;;5.66;100.00
20696;BME280;10507;52.754;13.040;2023-01-15T08:10:50;98901.03;;;5.68;100.00
20696;BME280;10507;52.754;13.040;2023-01-15T08:13:38;98897.16;;;5.73;100.00
20696;BME280;10507;52.754;13.040;2023-01-15T08:16:23;98891.97;;;5.72;100.00
20696;BME280;10507;52.754;13.040;2023-01-15T08:18:51;98862.75;;;5.73;100.00
20696;BME280;10507;52.754;13.040;2023-01-15T08:21:24;98846.84;;;5.73;100.00
20696;BME280;10507;52.754;13.040;2023-01-15T08:23:54;98852.91;;;5.75;100.00
20696;BME280;10507;52.754;13.040;2023-01-15T08:26:24;98864.84;;;5.82;100.00
20696;BME280;10507;52.754;13.040;2023-01-15T08:28:55;98855.97;;;5.83;100.00
20696;BME280;10507;52.754;13.040;2023-01-15T08:31:25;98872.34;;;5.90;100.00
20696;BME280;10507;52.754;13.040;2023-01-15T08:33:53;98856.34;;;5.92;100.00
20696;BME280;10507;52.754;13.040;2023-01-15T08:36:25;98855.38;;;5.94;100.00
20696;BME280;10507;52.754;13.040;2023-01-15T08:38:53;98834.00;;;5.97;100.00
20696;BME280;10507;52.754;13.040;2023-01-15T08:41:22;98828.59;;;5.99;100.00
20696;BME280;10507;52.754;13.040;2023-01-15T08:43:50;98853.78;;;6.06;100.00
20696;BME280;10507;52.754;13.040;2023-01-15T08:46:20;98817.13;;;5.98;100.00
20696;BME280;10507;52.754;13.040;2023-01-15T08:48:48;98815.53;;;5.96;100.00
20696;BME280;10507;52.754;13.040;2023-01-15T08:51:16;98846.94;;;6.02;100.00
20696;BME280;10507;52.754;13.040;2023-01-15T08:53:49;98840.53;;;6.06;100.00
20696;BME280;10507;52.754;13.040;2023-01-15T08:56:19;98801.63;;;6.07;100.00
20696;BME280;10507;52.754;13.040;2023-01-15T08:58:47;98820.09;;;6.08;100.00
20696;BME280;10507;52.754;13.040;2023-01-15T09:01:16;98847.91;;;6.15;100.00
20696;BME280;10507;52.754;13.040;2023-01-15T09:03:45;98826.03;;;6.12;100.00
20696;BME280;10507;52.754;13.040;2023-01-15T09:06:14;98865.91;;;6.24;100.00
20696;BME280;10507;52.754;13.040;2023-01-15T09:08:45;98825.59;;;6.19;100.00
20696;BME280;10507;52.754;13.040;2023-01-15T09:11:14;98834.19;;;6.23;100.00
20696;BME280;10507;52.754;13.040;2023-01-15T09:13:42;98791.44;;;6.15;100.00
20696;BME280;10507;52.754;13.040;2023-01-15T09:16:12;98823.50;;;6.24;100.00
20696;BME280;10507;52.754;13.040;2023-01-15T09:18:40;98792.75;;;6.22;100.00
20696;BME280;10507;52.754;13.040;2023-01-15T09:21:10;98787.34;;;6.23;100.00
20696;BME280;10507;52.754;13.040;2023-01-15T09:23:41;98791.69;;;6.24;100.00
20696;BME280;10507;52.754;13.040;2023-01-15T09:26:25;98870.06;;;6.43;100.00
20696;BME280;10507;52.754;13.040;2023-01-15T09:28:56;98824.53;;;6.36;100.00
20696;BME280;10507;52.754;13.040;2023-01-15T09:31:24;98823.22;;;6.43;100.00
20696;BME280;10507;52.754;13.040;2023-01-15T09:33:54;98806.66;;;6.40;100.00
20696;BME280;10507;52.754;13.040;2023-01-15T09:36:26;98809.56;;;6.50;100.00
20696;BME280;10507;52.754;13.040;2023-01-15T09:38:58;98810.16;;;6.55;100.00
20696;BME280;10507;52.754;13.040;2023-01-15T09:41:46;98775.56;;;6.56;100.00
20696;BME280;10507;52.754;13.040;2023-01-15T09:44:49;98779.34;;;6.66;99.62
20696;BME280;10507;52.754;13.040;2023-01-15T09:47:24;98708.34;;;6.57;99.84
20696;BME280;10507;52.754;13.040;2023-01-15T09:50:08;98733.81;;;6.60;99.68
20696;BME280;10507;52.754;13.040;2023-01-15T09:56:27;98736.91;;;6.66;99.01
20696;BME280;10507;52.754;13.040;2023-01-15T09:58:57;98699.88;;;6.65;98.92
20696;BME280;10507;52.754;13.040;2023-01-15T10:01:30;98653.50;;;6.58;98.39
20696;BME280;10507;52.754;13.040;2023-01-15T10:11:30;98681.75;;;6.72;98.18
20696;BME280;10507;52.754;13.040;2023-01-15T10:14:33;98651.44;;;6.76;98.18
20696;BME280;10507;52.754;13.040;2023-01-15T10:17:25;98670.91;;;6.89;97.42
20696;BME280;10507;52.754;13.040;2023-01-15T10:19:54;98669.00;;;6.91;96.99
20696;BME280;10507;52.754;13.040;2023-01-15T10:22:51;98617.09;;;6.87;97.19
20696;BME280;10507;52.754;13.040;2023-01-15T10:25:30;98667.72;;;6.97;97.00
20696;BME280;10507;52.754;13.040;2023-01-15T10:28:12;98671.38;;;7.08;96.81
20696;BME280;10507;52.754;13.040;2023-01-15T10:30:46;98622.09;;;7.04;96.26
20696;BME280;10507;52.754;13.040;2023-01-15T10:33:46;98573.19;;;7.08;95.61
20696;BME280;10507;52.754;13.040;2023-01-15T10:36:21;98560.53;;;7.12;95.26
20696;BME280;10507;52.754;13.040;2023-01-15T10:38:57;98501.75;;;7.05;94.75
20696;BME280;10507;52.754;13.040;2023-01-15T10:41:40;98569.16;;;7.16;95.49
20696;BME280;10507;52.754;13.040;2023-01-15T10:44:17;98513.94;;;7.08;94.36
20696;BME280;10507;52.754;13.040;2023-01-15T10:46:52;98475.22;;;7.05;94.30
20696;BME280;10507;52.754;13.040;2023-01-15T10:49:27;98448.50;;;6.96;94.74
20696;BME280;10507;52.754;13.040;2023-01-15T10:51:57;98459.63;;;7.01;94.54
20696;BME280;10507;52.754;13.040;2023-01-15T10:54:33;98496.25;;;7.08;94.04
20696;BME280;10507;52.754;13.040;2023-01-15T10:57:06;98477.34;;;7.13;94.09
20696;BME280;10507;52.754;13.040;2023-01-15T10:59:43;98419.50;;;7.05;94.14
20696;BME280;10507;52.754;13.040;2023-01-15T11:02:20;98472.22;;;7.10;93.35
20696;BME280;10507;52.754;13.040;2023-01-15T11:04:50;98498.00;;;7.21;94.10
20696;BME280;10507;52.754;13.040;2023-01-15T11:07:20;98440.28;;;7.12;93.39
20696;BME280;10507;52.754;13.040;2023-01-15T11:09:49;98417.34;;;7.11;93.18
20696;BME280;10507;52.754;13.040;2023-01-15T11:12:23;98419.28;;;7.08;93.60
20696;BME280;10507;52.754;13.040;2023-01-15T11:15:17;98403.66;;;7.04;93.53
20696;BME280;10507;52.754;13.040;2023-01-15T11:18:12;98423.19;;;7.16;93.06
20696;BME280;10507;52.754;13.040;2023-01-15T11:20:59;98403.97;;;7.12;93.40
20696;BME280;10507;52.754;13.040;2023-01-15T11:23:34;98385.75;;;7.07;93.12
20696;BME280;10507;52.754;13.040;2023-01-15T11:26:02;98390.41;;;7.04;92.96
20696;BME280;10507;52.754;13.040;2023-01-15T11:28:32;98370.25;;;7.01;93.47
20696;BME280;10507;52.754;13.040;2023-01-15T11:31:03;98365.94;;;7.00;93.25
20696;BME280;10507;52.754;13.040;2023-01-15T11:33:32;98376.94;;;7.07;93.27
20696;BME280;10507;52.754;13.040;2023-01-15T11:36:20;98307.22;;;7.05;92.15
20696;BME280;10507;52.754;13.040;2023-01-15T11:38:50;98316.03;;;7.05;92.55
20696;BME280;10507;52.754;13.040;2023-01-15T11:41:21;98326.53;;;7.07;92.43
20696;BME280;10507;52.754;13.040;2023-01-15T11:43:54;98304.47;;;7.06;91.98
20696;BME280;10507;52.754;13.040;2023-01-15T11:46:46;98290.84;;;7.11;91.80
20696;BME280;10507;52.754;13.040;2023-01-15T11:49:31;98289.09;;;7.23;91.55
20696;BME280;10507;52.754;13.040;2023-01-15T11:52:20;98259.06;;;7.22;91.21
20696;BME280;10507;52.754;13.040;2023-01-15T11:54:51;98242.28;;;7.22;90.67
20696;BME280;10507;52.754;13.040;2023-01-15T11:57:25;98227.78;;;7.15;90.94
20696;BME280;10507;52.754;13.040;2023-01-15T11:59:58;98230.81;;;7.21;90.20
20696;BME280;10507;52.754;13.040;2023-01-15T12:02:34;98202.34;;;7.23;90.16
20696;BME280;10507;52.754;13.040;2023-01-15T12:05:12;98147.47;;;7.24;89.37
20696;BME280;10507;52.754;13.040;2023-01-15T12:07:42;98202.75;;;7.30;89.62
20696;BME280;10507;52.754;13.040;2023-01-15T12:10:18;98201.81;;;7.42;89.35
20696;BME280;10507;52.754;13.040;2023-01-15T12:13:16;98078.72;;;7.32;88.24
20696;BME280;10507;52.754;13.040;2023-01-15T12:15:56;98111.91;;;7.38;88.64
20696;BME280;10507;52.754;13.040;2023-01-15T12:21:47;98160.69;;;7.59;88.56
20696;BME280;10507;52.754;13.040;2023-01-15T12:24:31;98115.16;;;7.53;88.60
20696;BME280;10507;52.754;13.040;2023-01-15T12:27:20;98045.69;;;7.36;88.40
20696;BME280;10507;52.754;13.040;2023-01-15T12:29:56;98043.13;;;7.35;88.14
20696;BME280;10507;52.754;13.040;2023-01-15T12:32:32;98028.41;;;7.31;88.13
20696;BME280;10507;52.754;13.040;2023-01-15T12:35:09;98067.28;;;7.32;87.45
20696;BME280;10507;52.754;13.040;2023-01-15T12:37:45;98086.94;;;7.40;88.01
20696;BME280;10507;52.754;13.040;2023-01-15T12:40:18;98068.94;;;7.33;88.68
20696;BME280;10507;52.754;13.040;2023-01-15T12:42:50;98110.09;;;7.38;88.15
20696;BME280;10507;52.754;13.040;2023-01-15T12:45:39;98114.94;;;7.44;88.56
20696;BME280;10507;52.754;13.040;2023-01-15T12:48:13;98076.31;;;7.40;88.35
20696;BME280;10507;52.754;13.040;2023-01-15T12:50:46;98105.16;;;7.34;88.42
20696;BME280;10507;52.754;13.040;2023-01-15T12:53:18;98111.06;;;7.37;88.47
20696;BME280;10507;52.754;13.040;2023-01-15T12:55:50;98077.16;;;7.29;88.22
20696;BME280;10507;52.754;13.040;2023-01-15T12:58:31;98110.56;;;7.32;89.07
20696;BME280;10507;52.754;13.040;2023-01-15T13:01:04;98164.66;;;7.42;87.92
20696;BME280;10507;52.754;13.040;2023-01-15T13:03:48;98135.19;;;7.45;87.83
20696;BME280;10507;52.754;13.040;2023-01-15T13:06:21;98159.09;;;7.57;88.07
20696;BME280;10507;52.754;13.040;2023-01-15T13:08:58;98141.00;;;7.62;87.49
20696;BME280;10507;52.754;13.040;2023-01-15T13:11:28;98114.44;;;7.62;88.17
20696;BME280;10507;52.754;13.040;2023-01-15T13:13:56;98034.78;;;7.50;88.01
20696;BME280;10507;52.754;13.040;2023-01-15T13:16:35;98032.88;;;7.53;87.76
20696;BME280;10507;52.754;13.040;2023-01-15T13:19:25;97989.69;;;7.39;87.23
20696;BME280;10507;52.754;13.040;2023-01-15T13:22:00;98050.88;;;7.38;87.55
20696;BME280;10507;52.754;13.040;2023-01-15T13:24:47;98023.97;;;7.31;87.80
20696;BME280;10507;52.754;13.040;2023-01-15T13:27:33;98040.72;;;7.32;88.36
20696;BME280;10507;52.754;13.040;2023-01-15T13:30:14;98094.53;;;7.34;88.66
20696;BME280;10507;52.754;13.040;2023-01-15T13:32:48;98036.50;;;7.29;88.44
20696;BME280;10507;52.754;13.040;2023-01-15T13:35:26;98030.94;;;7.32;87.87
20696;BME280;10507;52.754;13.040;2023-01-15T13:37:58;98018.28;;;7.24;88.66
20696;BME280;10507;52.754;13.040;2023-01-15T13:40:29;98047.72;;;7.33;87.52
20696;BME280;10507;52.754;13.040;2023-01-15T13:43:01;98054.72;;;7.34;88.21
20696;BME280;10507;52.754;13.040;2023-01-15T13:45:34;98090.53;;;7.39;88.17